This is the latest recevied weather packets stored in our database for station/object W2BP-13. If no packets are shown the sender has not sent any weather packets the latest 10 day(s).
| Time | Temp. | Humidity | Pressure | Rain* | Wind** | Luminosity | Snow |
|---|---|---|---|---|---|---|---|
| 1777813833 | 11.11° C | 81% | 1017.6 hPa | 0 mm | - | - | - |
| 1777812934 | 10.56° C | 82% | 1017.3 hPa | 0 mm | - | - | - |
| 1777812033 | 10.56° C | 83% | 1017.3 hPa | 0 mm | - | - | - |
| 1777811132 | 11.11° C | 81% | 1017.2 hPa | 0 mm | - | - | - |
| 1777810232 | 11.67° C | 79% | 1017.4 hPa | 0 mm | - | - | - |
| 1777809332 | 12.22° C | 78% | 1017.3 hPa | 0 mm | - | - | - |
| 1777808433 | 12.22° C | 78% | 1017.5 hPa | 0 mm | - | - | - |
| 1777807532 | 10.56° C | 83% | 1017.5 hPa | 0 mm | - | - | - |
| 1777806633 | 11.67° C | 78% | 1017.7 hPa | 0 mm | - | - | - |
| 1777805732 | 11.67° C | 77% | 1017.5 hPa | 0 mm | - | - | - |
| 1777804832 | 11.67° C | 78% | 1017.5 hPa | 0 mm | - | - | - |
| 1777803933 | 12.78° C | 76% | 1017.3 hPa | 0 mm | - | - | - |
| 1777803032 | 13.33° C | 73% | 1017.3 hPa | 0 mm | - | - | - |
| 1777802133 | 12.78° C | 76% | 1017.2 hPa | 0 mm | - | - | - |
| 1777801232 | 12.78° C | 75% | 1017.2 hPa | 0 mm | - | - | - |
| 1777800333 | 12.78° C | 75% | 1017.2 hPa | 0 mm | - | - | - |
| 1777799432 | 13.33° C | 72% | 1017.1 hPa | 0 mm | - | - | - |
| 1777798532 | 13.33° C | 71% | 1017 hPa | 0 mm | - | - | - |
| 1777797632 | 13.33° C | 71% | 1017.1 hPa | 0 mm | - | - | - |
| 1777796732 | 13.89° C | 67% | 1017 hPa | 0 mm | - | - | - |
| 1777795832 | 14.44° C | 67% | 1016.8 hPa | 0 mm | - | - | - |
| 1777794933 | 14.44° C | 67% | 1017 hPa | 0 mm | - | - | - |
| 1777794033 | 15° C | 66% | 1016.7 hPa | 0 mm | - | - | - |
| 1777793133 | 15.56° C | 63% | 1016.7 hPa | 0 mm | - | - | - |
| 1777792233 | 16.11° C | 61% | 1016.4 hPa | 0 mm | - | - | - |
* Rain latest hour (hover to see other rain measurements)
** Current wind speed in m/s (hover to see current wind gust speed)